Time;durP1;ratioP1;P1;durP2;ratioP2;P2;SDS_P1;SDS_P2;PMS_P1;PMS_P2;Temp;Humidity;BMP_temperature;BMP_pressure;BME280_temperature;BME280_humidity;BME280_pressure;Samples;Min_cycle;Max_cycle;Signal;HPM_P1;HPM_P2
2022/07/25 00:00:47;;;;;;;6.38;5.78;;;;;;;23.44;48.65;100193.22;4994746;28;20116;-84
2022/07/25 00:03:12;;;;;;;6.50;5.20;;;;;;;23.47;48.38;100187.31;5008595;28;20172;-85
2022/07/25 00:05:37;;;;;;;6.10;5.40;;;;;;;23.48;48.22;100180.06;4994709;28;20045;-85
2022/07/25 00:08:03;;;;;;;6.00;5.40;;;;;;;23.53;47.77;100183.66;4992101;28;20022;-85
2022/07/25 00:10:28;;;;;;;6.65;5.65;;;;;;;23.57;48.23;100175.06;5014307;28;20297;-84
2022/07/25 00:12:54;;;;;;;7.03;5.93;;;;;;;23.60;47.87;100177.28;5007337;28;20040;-85
2022/07/25 00:15:20;;;;;;;6.43;5.40;;;;;;;23.61;47.76;100171.63;4997613;28;20065;-83
2022/07/25 00:17:45;;;;;;;6.65;5.80;;;;;;;23.60;48.44;100180.00;4986130;28;20046;-84
2022/07/25 00:20:11;;;;;;;6.05;5.45;;;;;;;23.56;48.45;100168.84;5004734;28;20088;-84
2022/07/25 00:22:36;;;;;;;6.97;5.43;;;;;;;23.56;48.42;100168.03;5007027;28;20479;-85
2022/07/25 00:25:02;;;;;;;7.07;5.93;;;;;;;23.54;48.55;100162.88;5005240;28;20040;-85
2022/07/25 00:27:28;;;;;;;8.45;6.03;;;;;;;23.50;48.65;100165.28;5008364;28;20084;-84
2022/07/25 00:29:53;;;;;;;6.70;6.00;;;;;;;23.45;48.70;100170.56;5003984;28;20034;-84
2022/07/25 00:32:18;;;;;;;6.18;5.30;;;;;;;23.41;48.15;100155.94;5000134;28;20042;-84
2022/07/25 00:34:44;;;;;;;5.97;5.38;;;;;;;23.36;48.78;100160.41;5016250;28;20048;-85
2022/07/25 00:37:09;;;;;;;6.88;5.43;;;;;;;23.33;48.92;100164.44;5004834;28;20298;-84
2022/07/25 00:39:35;;;;;;;7.95;5.50;;;;;;;23.29;49.29;100166.00;4989135;28;20045;-84
2022/07/25 00:42:00;;;;;;;6.72;6.03;;;;;;;23.26;49.47;100163.78;5012066;28;20026;-84
2022/07/25 00:44:27;;;;;;;6.68;5.97;;;;;;;23.20;49.51;100159.38;4991262;28;20734;-85
2022/07/25 00:46:53;;;;;;;7.05;5.60;;;;;;;23.21;49.59;100155.59;5002477;28;20104;-84
2022/07/25 00:49:19;;;;;;;7.63;6.40;;;;;;;23.18;49.59;100164.19;5008959;28;20038;-84
2022/07/25 00:51:44;;;;;;;6.65;5.95;;;;;;;23.16;49.71;100160.91;5006000;28;20184;-83
2022/07/25 00:54:10;;;;;;;6.82;5.68;;;;;;;23.10;49.82;100157.31;5011869;28;20057;-84
2022/07/25 00:56:36;;;;;;;7.50;6.05;;;;;;;23.09;49.83;100152.97;5000013;28;20034;-84
2022/07/25 00:59:02;;;;;;;6.93;6.22;;;;;;;23.07;49.88;100144.31;5001159;28;20040;-85
2022/07/25 01:01:28;;;;;;;7.10;6.20;;;;;;;23.01;50.06;100143.41;5001389;28;20044;-84
2022/07/25 01:03:53;;;;;;;7.10;5.88;;;;;;;22.97;50.14;100139.53;5002149;28;20034;-83
2022/07/25 01:06:19;;;;;;;7.82;6.03;;;;;;;22.95;50.03;100136.25;4983185;28;20056;-84
2022/07/25 01:08:45;;;;;;;8.40;5.63;;;;;;;22.92;49.92;100136.75;5004421;28;20074;-83
2022/07/25 01:11:11;;;;;;;5.43;4.70;;;;;;;22.86;49.79;100141.25;5002078;28;20491;-84
2022/07/25 01:13:36;;;;;;;5.72;5.00;;;;;;;22.80;49.73;100125.22;5007376;28;20121;-83
2022/07/25 01:16:02;;;;;;;6.95;4.38;;;;;;;22.74;50.11;100123.47;5006857;28;20038;-83
2022/07/25 01:18:27;;;;;;;6.55;4.72;;;;;;;22.66;50.25;100117.41;5007253;28;20042;-83
2022/07/25 01:20:53;;;;;;;5.70;5.07;;;;;;;22.63;50.49;100109.81;4988372;28;20038;-83
2022/07/25 01:23:18;;;;;;;5.05;4.50;;;;;;;22.57;50.49;100113.50;4985575;28;20042;-84
2022/07/25 01:25:43;;;;;;;5.72;4.30;;;;;;;22.51;50.63;100105.56;4990089;28;20099;-84
2022/07/25 01:28:09;;;;;;;5.85;4.47;;;;;;;22.41;50.93;100098.09;4989563;28;20663;-83
2022/07/25 01:30:34;;;;;;;5.20;4.70;;;;;;;22.31;51.37;100098.72;4991715;28;20040;-84
2022/07/25 01:32:59;;;;;;;4.70;4.18;;;;;;;22.23;51.67;100093.69;4995149;28;20088;-83
2022/07/25 01:35:25;;;;;;;6.15;4.97;;;;;;;22.13;52.00;100088.88;5009347;28;20045;-83
2022/07/25 01:37:50;;;;;;;5.68;4.80;;;;;;;22.10;51.87;100088.56;4988834;28;21289;-83
2022/07/25 01:40:16;;;;;;;4.75;4.18;;;;;;;22.06;52.12;100085.50;5001454;28;20084;-84
2022/07/25 01:42:42;;;;;;;4.82;4.10;;;;;;;22.01;52.03;100080.84;5005070;28;20411;-83
2022/07/25 01:45:08;;;;;;;4.88;4.28;;;;;;;21.99;52.38;100076.75;5001507;28;20029;-83
2022/07/25 01:47:34;;;;;;;5.20;4.13;;;;;;;21.94;52.30;100087.41;4982160;28;20408;-83
2022/07/25 01:49:59;;;;;;;4.95;4.45;;;;;;;21.85;53.66;100090.47;5008153;28;20149;-83
2022/07/25 01:52:24;;;;;;;6.57;4.40;;;;;;;21.79;53.09;100090.63;5009521;28;20049;-83
2022/07/25 01:54:50;;;;;;;4.90;4.00;;;;;;;21.71;53.51;100086.38;4994252;28;20503;-84
2022/07/25 01:57:15;;;;;;;5.45;4.35;;;;;;;21.68;53.28;100089.56;5003095;28;20038;-84
2022/07/25 01:59:40;;;;;;;4.55;4.07;;;;;;;21.63;53.57;100081.38;4988307;28;20577;-83
2022/07/25 02:02:08;;;;;;;6.65;4.70;;;;;;;21.61;53.53;100084.31;4989480;28;20132;-83
2022/07/25 02:04:34;;;;;;;6.13;4.50;;;;;;;21.58;53.76;100086.66;4992377;28;20038;-83
2022/07/25 02:07:00;;;;;;;5.80;4.60;;;;;;;21.55;54.06;100082.56;4993934;28;20121;-83
2022/07/25 02:09:25;;;;;;;5.40;4.82;;;;;;;21.55;54.13;100079.88;5004583;28;20038;-84
2022/07/25 02:11:51;;;;;;;5.15;4.63;;;;;;;21.55;54.63;100079.88;4992270;28;20042;-83
2022/07/25 02:14:16;;;;;;;5.65;4.90;;;;;;;21.52;54.72;100087.59;4992906;28;20042;-83
2022/07/25 02:16:42;;;;;;;6.13;4.97;;;;;;;21.46;54.94;100086.66;4989118;28;20030;-83
2022/07/25 02:19:07;;;;;;;5.25;4.70;;;;;;;21.41;55.34;100090.03;5010304;28;20362;-83
2022/07/25 02:21:32;;;;;;;5.95;4.82;;;;;;;21.38;55.24;100095.03;5010424;28;20038;-83
2022/07/25 02:23:58;;;;;;;6.22;4.85;;;;;;;21.34;55.44;100099.25;5011798;28;20062;-84
2022/07/25 02:26:23;;;;;;;6.35;4.82;;;;;;;21.30;55.37;100090.00;4997611;28;20084;-83
2022/07/25 02:28:49;;;;;;;6.50;5.00;;;;;;;21.26;55.92;100092.38;4992871;28;20124;-83
2022/07/25 02:31:14;;;;;;;6.53;5.43;;;;;;;21.22;56.63;100093.88;5006148;28;20069;-83
2022/07/25 02:33:39;;;;;;;6.82;6.13;;;;;;;21.19;56.96;100103.22;4992374;28;20099;-84
2022/07/25 02:36:05;;;;;;;6.35;5.55;;;;;;;21.18;57.00;100090.00;5010368;28;20084;-84
2022/07/25 02:38:30;;;;;;;8.48;6.15;;;;;;;21.16;57.01;100089.41;4991828;28;20046;-83
2022/07/25 02:40:56;;;;;;;6.50;5.43;;;;;;;21.13;56.83;100082.63;5010399;28;20519;-83
2022/07/25 02:43:21;;;;;;;6.07;5.22;;;;;;;21.13;56.98;100082.63;4993335;28;20056;-83
2022/07/25 02:45:46;;;;;;;7.32;5.50;;;;;;;21.11;56.79;100079.34;4983864;28;20599;-83
2022/07/25 02:48:12;;;;;;;6.40;5.75;;;;;;;21.10;57.22;100082.28;5003973;28;20038;-83
2022/07/25 02:50:38;;;;;;;6.93;5.70;;;;;;;21.09;56.99;100078.75;5008388;28;20068;-83
2022/07/25 02:53:03;;;;;;;5.80;5.20;;;;;;;21.11;56.81;100075.84;4988189;28;20117;-83
2022/07/25 02:55:29;;;;;;;6.72;5.28;;;;;;;21.10;56.89;100075.03;5004635;28;20034;-83
2022/07/25 02:57:54;;;;;;;5.40;4.80;;;;;;;21.09;56.99;100068.00;5006690;28;20449;-84
2022/07/25 03:00:20;;;;;;;5.70;4.85;;;;;;;21.06;57.15;100070.34;5007064;28;20045;-84
2022/07/25 03:02:45;;;;;;;5.22;4.72;;;;;;;21.04;57.19;100069.75;4989396;28;20053;-83
2022/07/25 03:05:13;;;;;;;4.80;3.90;;;;;;;20.98;57.19;100071.53;5008821;28;20069;-83
2022/07/25 03:07:40;;;;;;;5.25;4.72;;;;;;;20.89;57.75;100059.47;5009090;28;20060;-84
2022/07/25 03:10:08;;;;;;;5.30;4.78;;;;;;;20.81;57.63;100067.84;5004298;28;20052;-83
2022/07/25 03:12:34;;;;;;;5.03;4.28;;;;;;;20.73;58.27;100061.75;4987420;28;20037;-83
2022/07/25 03:15:00;;;;;;;5.97;4.82;;;;;;;20.66;58.79;100054.84;4981232;28;20046;-84
2022/07/25 03:17:27;;;;;;;5.88;5.03;;;;;;;20.58;58.74;100064.88;5006893;28;20030;-83
2022/07/25 03:19:53;;;;;;;6.75;5.60;;;;;;;20.46;59.78;100077.41;5010750;28;20062;-83
2022/07/25 03:22:19;;;;;;;6.78;5.45;;;;;;;20.36;60.47;100071.78;5005141;28;20030;-84
2022/07/25 03:24:44;;;;;;;6.70;6.00;;;;;;;20.27;60.56;100079.31;5006443;28;20036;-83
2022/07/25 03:27:10;;;;;;;6.60;5.75;;;;;;;20.22;60.38;100076.50;4992929;28;20133;-83
2022/07/25 03:29:35;;;;;;;5.93;5.13;;;;;;;20.20;60.15;100064.34;4986619;28;20038;-83
2022/07/25 03:32:01;;;;;;;5.70;4.97;;;;;;;20.18;60.03;100067.25;5005032;28;20033;-84
2022/07/25 03:34:27;;;;;;;5.55;4.82;;;;;;;20.21;60.19;100065.97;4993611;28;20124;-83
2022/07/25 03:36:52;;;;;;;5.57;5.03;;;;;;;20.26;60.10;100066.94;5007888;28;20495;-83
2022/07/25 03:39:19;;;;;;;5.78;5.03;;;;;;;20.28;60.11;100061.34;5011812;28;20692;-83
2022/07/25 03:41:45;;;;;;;5.90;5.03;;;;;;;20.30;60.18;100061.94;5000702;28;20041;-83
2022/07/25 03:44:10;;;;;;;6.22;5.20;;;;;;;20.32;60.13;100060.66;4993861;28;20180;-83
2022/07/25 03:46:36;;;;;;;6.50;4.75;;;;;;;20.36;60.24;100063.72;5008430;28;20038;-83
2022/07/25 03:49:01;;;;;;;6.80;5.30;;;;;;;20.35;60.54;100054.84;5015975;28;20030;-83
2022/07/25 03:51:27;;;;;;;6.70;5.20;;;;;;;20.35;60.42;100049.47;5006715;28;20034;-83
2022/07/25 03:54:01;;;;;;;6.03;4.65;;;;;;;20.35;60.55;100044.13;4999262;28;20112;-84
2022/07/25 03:56:31;;;;;;;5.10;4.60;;;;;;;20.34;60.56;100057.75;5009323;28;20084;-83
2022/07/25 03:58:56;;;;;;;5.60;5.00;;;;;;;20.27;60.86;100049.78;4996583;28;20069;-83
2022/07/25 04:01:22;;;;;;;5.50;4.97;;;;;;;20.21;61.21;100041.81;4997392;28;20038;-84
2022/07/25 04:03:47;;;;;;;6.38;5.78;;;;;;;20.15;61.54;100047.03;4989487;28;20044;-83
2022/07/25 04:06:13;;;;;;;6.78;5.30;;;;;;;20.12;61.60;100044.00;5007011;28;20034;-83
2022/07/25 04:08:38;;;;;;;6.95;5.50;;;;;;;20.08;61.98;100043.63;4991157;28;20054;-83
2022/07/25 04:11:04;;;;;;;6.35;5.50;;;;;;;20.03;62.39;100046.16;4997548;28;20084;-83
2022/07/25 04:13:29;;;;;;;6.25;5.20;;;;;;;20.00;62.11;100035.91;4997443;28;20093;-84
2022/07/25 04:15:55;;;;;;;5.50;4.90;;;;;;;20.04;61.87;100047.00;5011828;28;20517;-83
2022/07/25 04:18:20;;;;;;;4.70;4.20;;;;;;;20.07;61.99;100039.31;4995475;28;20438;-83
2022/07/25 04:20:45;;;;;;;6.38;4.38;;;;;;;20.14;61.74;100039.22;5010969;28;20048;-84
2022/07/25 04:23:11;;;;;;;6.32;3.78;;;;;;;20.19;61.62;100031.31;5009611;28;20038;-83
2022/07/25 04:25:36;;;;;;;4.90;4.40;;;;;;;20.23;62.37;100040.53;4997986;28;20220;-83
2022/07/25 04:28:01;;;;;;;6.32;5.20;;;;;;;20.23;62.85;100035.16;4982271;28;20037;-84
2022/07/25 04:30:27;;;;;;;6.32;5.55;;;;;;;20.23;63.28;100035.16;5009762;28;20117;-83
2022/07/25 04:32:52;;;;;;;6.07;5.30;;;;;;;20.22;63.45;100032.72;4994538;28;20030;-83
2022/07/25 04:35:18;;;;;;;6.80;5.80;;;;;;;20.21;63.43;100031.88;5007924;28;20424;-84
2022/07/25 04:37:43;;;;;;;5.60;5.00;;;;;;;20.23;63.18;100028.97;4988522;28;20458;-84
2022/07/25 04:40:10;;;;;;;5.78;4.45;;;;;;;20.29;62.81;100028.09;4995316;28;20042;-83
2022/07/25 04:42:35;;;;;;;5.13;4.25;;;;;;;20.35;62.86;100017.25;5011904;28;20034;-84
2022/07/25 04:45:00;;;;;;;5.07;4.15;;;;;;;20.43;62.91;100018.78;5013522;28;20394;-83
2022/07/25 04:47:26;;;;;;;5.95;5.35;;;;;;;20.47;64.42;100024.50;4993847;28;20057;-84
2022/07/25 04:49:51;;;;;;;6.97;6.20;;;;;;;20.47;63.92;100028.00;4987024;28;20514;-84
2022/07/25 04:52:16;;;;;;;6.35;5.25;;;;;;;20.54;63.77;100022.53;4996545;28;20038;-84
2022/07/25 04:54:42;;;;;;;6.22;5.60;;;;;;;20.62;63.56;100026.78;5014032;28;20037;-83
2022/07/25 04:57:07;;;;;;;5.75;4.80;;;;;;;20.70;63.21;100016.53;5008144;28;20070;-83
2022/07/25 04:59:32;;;;;;;5.20;4.70;;;;;;;20.81;63.31;100019.47;4995834;28;20038;-84
2022/07/25 05:01:58;;;;;;;5.72;4.63;;;;;;;20.91;62.72;100020.56;5014071;28;20056;-83
2022/07/25 05:04:23;;;;;;;4.60;4.10;;;;;;;21.02;62.83;100016.22;5008266;28;20034;-83
2022/07/25 05:06:48;;;;;;;5.82;4.43;;;;;;;21.09;62.52;100013.44;4994172;28;20045;-83
2022/07/25 05:09:14;;;;;;;5.72;4.38;;;;;;;21.23;62.29;100011.31;5011885;28;20096;-84
2022/07/25 05:11:39;;;;;;;5.60;4.60;;;;;;;21.31;62.19;100022.56;5011604;28;20077;-84
2022/07/25 05:14:04;;;;;;;5.72;5.18;;;;;;;21.33;62.51;100020.47;5011966;28;20045;-84
2022/07/25 05:16:30;;;;;;;7.97;6.18;;;;;;;21.36;63.20;100024.53;5009882;28;20069;-84
2022/07/25 05:18:55;;;;;;;7.32;6.20;;;;;;;21.38;63.50;100019.72;5010088;28;20038;-84
2022/07/25 05:21:20;;;;;;;6.55;5.60;;;;;;;21.46;63.50;100015.91;4990621;28;20051;-84
2022/07/25 05:23:46;;;;;;;7.55;6.47;;;;;;;21.53;62.86;100022.78;4998162;28;20091;-83
2022/07/25 05:26:11;;;;;;;6.25;5.65;;;;;;;21.65;62.56;100020.09;4992570;28;20042;-84
2022/07/25 05:28:37;;;;;;;7.15;5.57;;;;;;;21.77;62.12;100014.69;5024412;28;20038;-83
2022/07/25 05:31:02;;;;;;;5.55;4.93;;;;;;;21.93;61.98;100018.47;5015789;28;20037;-84
2022/07/25 05:33:27;;;;;;;6.63;5.00;;;;;;;22.05;62.00;100020.09;5028131;28;20525;-84
2022/07/25 05:35:53;;;;;;;7.95;5.60;;;;;;;22.29;61.13;100014.63;4985972;28;20602;-84
2022/07/25 05:38:18;;;;;;;5.28;4.75;;;;;;;22.58;60.45;100020.78;4993259;28;20586;-84
2022/07/25 05:40:44;;;;;;;7.32;5.07;;;;;;;22.92;59.76;100010.03;5013041;28;20034;-84
2022/07/25 05:43:10;;;;;;;6.28;5.05;;;;;;;23.25;59.22;99994.91;4982824;28;20046;-84
2022/07/25 05:45:35;;;;;;;7.07;5.85;;;;;;;23.60;58.26;99999.16;4992190;28;20031;-84
2022/07/25 05:48:00;;;;;;;6.32;5.35;;;;;;;24.04;57.25;100002.66;4989765;28;20030;-85
2022/07/25 05:50:25;;;;;;;5.35;4.85;;;;;;;24.56;56.56;99999.41;4976060;28;20287;-84
2022/07/25 05:52:51;;;;;;;6.03;4.80;;;;;;;25.11;55.35;99999.28;4997257;28;20042;-84
2022/07/25 05:55:16;;;;;;;6.00;4.90;;;;;;;25.59;54.71;99994.69;5002418;28;20030;-84
2022/07/25 05:57:42;;;;;;;5.10;4.38;;;;;;;26.06;54.26;99996.50;4985853;28;20278;-84
2022/07/25 06:00:08;;;;;;;4.65;4.00;;;;;;;26.44;53.73;100000.63;5007031;28;20117;-84
2022/07/25 06:02:33;;;;;;;4.55;4.15;;;;;;;26.87;53.24;99987.63;4993646;28;20033;-85
2022/07/25 06:04:59;;;;;;;4.53;4.05;;;;;;;27.28;52.47;99998.44;5005045;28;20084;-84
2022/07/25 06:07:24;;;;;;;4.20;3.80;;;;;;;27.69;51.77;99992.03;5023627;28;20037;-84
2022/07/25 06:09:50;;;;;;;5.13;4.38;;;;;;;27.91;50.44;99992.50;5015232;28;20053;-82
2022/07/25 06:12:15;;;;;;;4.47;4.07;;;;;;;28.23;50.27;99995.84;5013551;28;20440;-83
2022/07/25 06:14:40;;;;;;;5.28;4.50;;;;;;;28.55;49.38;99998.88;4995704;28;20044;-83
2022/07/25 06:17:06;;;;;;;5.22;4.13;;;;;;;28.95;48.69;100010.53;5006068;28;20120;-83
2022/07/25 06:19:31;;;;;;;6.37;4.80;;;;;;;29.30;47.27;100000.41;4996571;28;20088;-83
2022/07/25 06:21:56;;;;;;;5.55;4.50;;;;;;;29.65;46.49;99998.34;5016590;28;20273;-83
2022/07/25 06:24:22;;;;;;;7.03;4.83;;;;;;;30.09;45.71;99997.25;5015782;28;20049;-83
2022/07/25 06:26:47;;;;;;;8.43;6.00;;;;;;;30.40;43.26;100000.34;4989716;28;20759;-83
2022/07/25 06:29:12;;;;;;;6.83;4.60;;;;;;;30.74;43.60;99990.25;5006410;28;20033;-83
2022/07/25 06:31:37;;;;;;;9.55;4.57;;;;;;;31.09;42.96;99992.34;5012466;28;20285;-83
2022/07/25 06:34:03;;;;;;;7.43;5.03;;;;;;;31.42;42.12;100000.50;5013627;28;20022;-83
2022/07/25 06:36:28;;;;;;;7.15;4.25;;;;;;;31.68;41.84;100000.00;5003081;28;20034;-83
2022/07/25 06:38:53;;;;;;;6.72;4.90;;;;;;;31.77;41.28;99989.91;5005764;28;20077;-83
2022/07/25 06:41:19;;;;;;;7.50;4.57;;;;;;;32.03;40.84;99987.47;5006737;28;20084;-83
2022/07/25 06:43:44;;;;;;;6.25;4.15;;;;;;;32.21;40.55;99987.63;5012601;28;20041;-83
2022/07/25 06:46:09;;;;;;;7.10;4.30;;;;;;;32.32;40.41;99984.34;5024341;28;20033;-83
2022/07/25 06:48:35;;;;;;;6.35;4.28;;;;;;;32.60;40.04;99975.19;4989773;28;20035;-83
2022/07/25 06:51:00;;;;;;;4.20;3.35;;;;;;;32.89;39.77;99975.50;4998678;28;20101;-83
2022/07/25 06:53:25;;;;;;;5.10;3.60;;;;;;;33.21;38.84;99977.13;5012972;28;20037;-83
2022/07/25 06:55:51;;;;;;;6.03;4.30;;;;;;;33.46;37.66;99971.25;5009040;28;20065;-83
2022/07/25 06:58:16;;;;;;;6.72;4.60;;;;;;;33.62;37.36;99976.00;4995988;28;20054;-83
2022/07/25 07:00:41;;;;;;;6.75;4.30;;;;;;;33.77;36.91;99973.91;5008470;28;20273;-83
2022/07/25 07:03:06;;;;;;;5.20;4.13;;;;;;;33.95;36.79;99966.50;4998208;28;20045;-84
2022/07/25 07:05:35;;;;;;;10.63;5.47;;;;;;;34.24;35.22;99972.16;5014348;28;20692;-83
2022/07/25 07:08:01;;;;;;;6.88;5.10;;;;;;;34.28;34.95;99968.78;5011519;28;20113;-83
2022/07/25 07:10:26;;;;;;;;;;;;;;;34.28;34.87;99982.50;4998011;28;20432;-83
2022/07/25 07:13:03;;;;;;;4.97;4.47;;;;;;;34.43;35.01;99979.25;5018308;28;20004;-83
2022/07/25 07:15:29;;;;;;;5.65;4.07;;;;;;;34.69;34.75;99973.75;5020745;28;20459;-84
2022/07/25 07:17:54;;;;;;;5.57;4.35;;;;;;;34.89;33.49;99969.47;5003581;28;20077;-83
2022/07/25 07:20:19;;;;;;;6.38;4.88;;;;;;;34.68;32.08;99959.22;4995964;28;20050;-83
2022/07/25 07:22:46;;;;;;;8.18;5.30;;;;;;;34.48;31.18;99959.88;4991968;28;20124;-85
2022/07/25 07:25:13;;;;;;;7.43;5.18;;;;;;;34.25;31.26;99970.22;5023133;28;20111;-85
2022/07/25 07:27:39;;;;;;;6.28;5.18;;;;;;;34.31;31.81;99963.47;5017152;28;20072;-83
2022/07/25 07:30:04;;;;;;;5.18;4.68;;;;;;;34.38;31.62;99972.00;5041863;28;20042;-83
2022/07/25 07:32:30;;;;;;;5.05;4.18;;;;;;;34.40;31.53;99964.25;5023818;28;20026;-84
2022/07/25 07:34:55;;;;;;;5.33;4.40;;;;;;;34.63;31.27;99970.34;5027860;28;20033;-84
2022/07/25 07:37:20;;;;;;;5.10;4.00;;;;;;;34.80;31.13;99974.19;5023313;28;20367;-84
2022/07/25 07:39:45;;;;;;;7.37;4.60;;;;;;;34.98;30.61;99969.44;5019988;28;20284;-85
2022/07/25 07:42:11;;;;;;;8.23;5.07;;;;;;;34.79;29.98;99970.63;5007935;28;20273;-84
2022/07/25 07:44:36;;;;;;;7.28;5.10;;;;;;;34.88;29.75;99976.13;5009123;28;20356;-84
2022/07/25 07:47:01;;;;;;;5.20;4.70;;;;;;;34.79;30.00;99967.91;5007914;28;20040;-84
2022/07/25 07:49:28;;;;;;;5.57;4.50;;;;;;;34.95;30.46;99981.91;4999734;28;20034;-83
2022/07/25 07:51:53;;;;;;;5.57;4.97;;;;;;;35.04;30.02;99968.13;5019064;28;20317;-84
2022/07/25 07:57:03;;;;;;;5.53;4.78;;;;;;;35.14;29.24;99967.81;5018305;28;20176;-83
2022/07/25 07:59:28;;;;;;;5.75;4.55;;;;;;;35.34;29.81;99962.69;4995806;28;20562;-85
2022/07/25 08:01:53;;;;;;;5.93;5.13;;;;;;;35.38;29.64;99971.88;5016778;28;20030;-85
2022/07/25 08:04:19;;;;;;;6.13;5.00;;;;;;;35.41;28.93;99971.22;5006798;28;20419;-84
2022/07/25 08:06:44;;;;;;;6.55;4.80;;;;;;;35.41;29.33;99972.00;5015751;28;20273;-84
2022/07/25 08:09:09;;;;;;;5.70;4.80;;;;;;;35.41;29.56;99972.00;4998456;28;20465;-85
2022/07/25 08:11:35;;;;;;;6.07;5.18;;;;;;;35.72;29.31;99971.69;5007859;28;20278;-84
2022/07/25 08:14:00;;;;;;;5.40;4.85;;;;;;;35.89;28.62;99980.94;5012535;28;20065;-84
2022/07/25 08:16:26;;;;;;;5.75;4.97;;;;;;;35.83;28.54;99976.81;5009648;28;20522;-84
2022/07/25 08:18:52;;;;;;;6.40;5.13;;;;;;;35.99;28.55;99974.22;5007023;28;20049;-85
2022/07/25 08:21:17;;;;;;;5.43;4.85;;;;;;;35.97;28.39;99979.25;5010697;28;20034;-84
2022/07/25 08:23:45;;;;;;;7.53;5.15;;;;;;;36.09;28.26;99984.84;4996370;28;20395;-85
2022/07/25 08:26:13;;;;;;;7.03;5.68;;;;;;;36.13;28.54;99983.84;5032894;28;20045;-84
2022/07/25 08:28:38;;;;;;;6.03;5.43;;;;;;;36.24;28.23;99984.25;5010776;28;20042;-84
2022/07/25 08:31:04;;;;;;;6.28;5.47;;;;;;;36.53;27.96;99982.50;5008514;28;20033;-84
2022/07/25 08:33:30;;;;;;;6.28;5.38;;;;;;;36.85;27.49;99978.16;4999764;28;20106;-85
2022/07/25 08:35:57;;;;;;;10.02;5.38;;;;;;;37.08;27.00;99964.75;5017248;28;20029;-85
2022/07/25 08:38:25;;;;;;;7.97;5.72;;;;;;;37.22;26.99;99969.13;5005247;28;20033;-84
2022/07/25 08:40:52;;;;;;;5.95;4.97;;;;;;;37.37;27.02;99960.13;5019977;28;20037;-84
2022/07/25 08:43:18;;;;;;;5.32;4.82;;;;;;;37.80;26.39;99967.78;5012592;28;20034;-85
2022/07/25 08:45:48;;;;;;;6.22;5.60;;;;;;;37.91;25.93;99970.88;5009128;28;20140;-85
2022/07/25 08:48:17;;;;;;;6.28;4.95;;;;;;;38.18;25.80;99966.53;5000578;28;20038;-84
2022/07/25 08:50:42;;;;;;;5.22;4.65;;;;;;;38.31;25.13;99963.72;4997547;28;20034;-85
2022/07/25 08:53:08;;;;;;;6.63;4.57;;;;;;;38.56;24.82;99964.41;5015664;28;20041;-85
2022/07/25 08:55:33;;;;;;;5.40;4.30;;;;;;;38.88;25.19;99962.47;5014020;28;20517;-84
2022/07/25 08:57:59;;;;;;;4.82;4.28;;;;;;;39.21;24.79;99962.13;5026102;28;20052;-84
2022/07/25 09:00:27;;;;;;;5.03;4.53;;;;;;;39.45;23.97;99966.66;5032046;28;20033;-85
2022/07/25 09:03:00;;;;;;;5.50;5.00;;;;;;;39.57;23.35;99962.16;5004268;28;20123;-84
2022/07/25 09:05:28;;;;;;;4.40;4.00;;;;;;;40.00;23.37;99960.31;5015060;28;20507;-85
2022/07/25 09:07:56;;;;;;;5.97;5.35;;;;;;;40.50;22.12;99964.88;5017902;28;20030;-84
2022/07/25 09:10:27;;;;;;;5.07;4.57;;;;;;;40.58;22.53;99957.50;5005807;28;20033;-85
2022/07/25 09:12:54;;;;;;;5.03;4.03;;;;;;;40.93;22.36;99946.25;5016540;28;20041;-85
2022/07/25 09:15:26;;;;;;;;;;;;;;;41.02;21.95;99934.88;4984321;28;20031;-85
2022/07/25 09:17:52;;;;;;;;;;;;;;;40.58;21.41;99943.63;4990861;28;19928;-84
2022/07/25 09:20:18;;;;;;;;;;;;;;;40.63;21.65;99943.31;4994864;28;20012;-85
2022/07/25 09:22:43;;;;;;;;;;;;;;;41.17;22.17;99939.50;4997370;28;19948;-85
2022/07/25 09:25:18;;;;;;;;;;;;;;;41.84;21.50;99940.03;4998093;28;19977;-85
2022/07/25 09:27:43;;;;;;;;;;;;;;;42.12;20.85;99937.59;5010550;28;19920;-85
2022/07/25 09:30:12;;;;;;;;;;;;;;;42.36;20.13;99941.81;5015651;28;19917;-84
2022/07/25 09:32:38;;;;;;;;;;;;;;;42.28;19.75;99931.78;4997539;28;19985;-84
2022/07/25 09:35:03;;;;;;;;;;;;;;;41.84;19.99;99928.91;5013431;28;19987;-85
2022/07/25 09:37:31;;;;;;;;;;;;;;;41.95;20.58;99936.22;5005506;28;19939;-86
2022/07/25 09:39:56;;;;;;;;;;;;;;;42.35;20.54;99922.75;5022619;28;19996;-85
2022/07/25 09:42:24;;;;;;;;;;;;;;;42.77;20.00;99930.69;5009065;28;19940;-85
2022/07/25 09:44:56;;;;;;;;;;;;;;;43.09;19.64;99932.91;5021297;28;20278;-85
2022/07/25 09:47:21;;;;;;;;;;;;;;;43.54;19.36;99925.25;5010081;28;20008;-85
2022/07/25 09:49:47;;;;;;;;;;;;;;;43.44;18.75;99923.22;5028991;28;19936;-86
2022/07/25 09:52:12;;;;;;;;;;;;;;;43.60;18.95;99922.88;5003176;28;20279;-85
2022/07/25 09:54:38;;;;;;;;;;;;;;;44.20;18.81;99919.56;5009881;28;20374;-85
2022/07/25 09:57:03;;;;;;;;;;;;;;;44.50;18.31;99913.63;4999349;28;19913;-86
2022/07/25 09:59:28;;;;;;;;;;;;;;;44.71;18.16;99920.41;4985594;28;20346;-85
2022/07/25 10:02:05;;;;;;;;;;;;;;;44.49;17.74;99914.81;5010346;28;19917;-85
2022/07/25 10:04:47;;;;;;;4.80;4.30;;;;;;;45.03;17.22;99906.47;5003764;28;19914;-85
2022/07/25 10:07:15;;;;;;;4.00;3.60;;;;;;;45.75;17.09;99904.25;5015428;28;20404;-85
2022/07/25 10:09:46;;;;;;;5.70;4.10;;;;;;;45.60;17.32;99897.13;5014152;28;20276;-85
2022/07/25 10:12:14;;;;;;;4.68;4.03;;;;;;;45.48;16.71;99903.13;5015808;28;20033;-85
2022/07/25 10:14:39;;;;;;;4.85;4.30;;;;;;;45.00;17.33;99895.28;5002782;28;20064;-85
2022/07/25 10:17:20;;;;;;;3.95;3.60;;;;;;;44.54;18.08;99893.31;5000532;28;20461;-85
2022/07/25 10:19:46;;;;;;;;;;;;;;;45.11;17.64;99882.13;5020392;28;20097;-85
2022/07/25 10:22:13;;;;;;;5.45;3.75;;;;;;;45.62;16.89;99883.56;5020158;28;19914;-84
2022/07/25 10:24:43;;;;;;;4.40;3.58;;;;;;;45.26;16.84;99883.69;5029284;28;20383;-85
2022/07/25 10:27:11;;;;;;;4.20;3.75;;;;;;;44.53;17.22;99886.97;5005147;28;20476;-86
2022/07/25 10:29:41;;;;;;;4.85;4.10;;;;;;;42.97;18.29;99878.41;5030643;28;20434;-85
2022/07/25 10:32:11;;;;;;;4.53;3.70;;;;;;;41.95;19.85;99879.84;5031491;28;20399;-84
2022/07/25 10:34:37;;;;;;;4.47;4.05;;;;;;;41.09;20.20;99884.25;5021362;28;20405;-85
2022/07/25 10:37:16;;;;;;;4.75;4.25;;;;;;;40.36;20.84;99880.69;5002510;28;20076;-85
2022/07/25 10:39:43;;;;;;;4.22;3.83;;;;;;;40.62;20.69;99880.75;4993148;28;20052;-86
2022/07/25 10:42:13;;;;;;;4.72;4.20;;;;;;;41.63;19.70;99874.72;4972782;28;20038;-84
2022/07/25 10:44:45;;;;;;;5.60;4.85;;;;;;;41.42;19.78;99874.44;4993640;28;20034;-85
2022/07/25 10:47:12;;;;;;;5.30;4.78;;;;;;;40.66;20.26;99867.75;5006124;28;20046;-85
2022/07/25 10:49:40;;;;;;;4.90;4.40;;;;;;;40.19;20.73;99868.09;5004679;28;20041;-84
2022/07/25 10:52:06;;;;;;;7.18;4.60;;;;;;;40.98;20.50;99873.03;4995581;28;20045;-85
2022/07/25 10:54:37;;;;;;;5.53;4.50;;;;;;;42.80;19.16;99859.63;4995182;28;20088;-85
2022/07/25 10:57:04;;;;;;;4.30;3.90;;;;;;;44.36;18.34;99868.97;5013894;28;20030;-85
2022/07/25 10:59:38;;;;;;;6.95;4.47;;;;;;;45.26;16.43;99854.97;5012610;28;20112;-87
2022/07/25 11:02:07;;;;;;;5.35;4.25;;;;;;;46.13;16.54;99786.25;5032548;28;20114;-84
2022/07/25 11:04:33;;;;;;;4.15;3.75;;;;;;;46.09;16.20;99775.09;4979364;28;20050;-85
2022/07/25 11:07:13;;;;;;;5.93;5.13;;;;;;;45.80;15.48;99776.53;5006141;28;20030;-85
2022/07/25 11:09:43;;;;;;;6.65;4.63;;;;;;;45.25;16.27;99859.75;4994446;28;20050;-85
2022/07/25 11:12:13;;;;;;;5.03;3.95;;;;;;;44.87;16.14;99839.91;4999592;28;20052;-84
2022/07/25 11:14:42;;;;;;;5.90;4.10;;;;;;;45.30;16.28;99850.19;4991284;28;20415;-85
2022/07/25 11:17:28;;;;;;;5.82;4.20;;;;;;;45.35;15.65;99844.16;4973687;28;20035;-85
2022/07/25 11:19:59;;;;;;;5.82;4.63;;;;;;;45.49;15.55;99840.53;4979488;28;20034;-85
2022/07/25 11:22:25;;;;;;;5.90;4.15;;;;;;;45.71;15.99;99844.81;4985428;28;20034;-85
2022/07/25 11:24:51;;;;;;;4.43;4.03;;;;;;;44.93;16.60;99829.94;4981528;28;20041;-85
2022/07/25 11:27:25;;;;;;;6.15;4.40;;;;;;;43.62;17.22;99828.66;4999501;28;20038;-85
2022/07/25 11:29:50;;;;;;;4.72;4.13;;;;;;;42.79;18.14;99833.81;4995131;28;20084;-85
2022/07/25 11:32:16;;;;;;;7.07;4.40;;;;;;;42.36;18.29;99830.66;4977915;28;20030;-85